Wilson, Minnesota
Current Conditions -  °F | °C
As of 9:14 PM on Saturday 20 Dec 2014 (Local Time) from KPWC Reporting Station
Haze Haze  
Wind Chill: 18°   Ceiling: 500
Heat Index: 28°   Visibility: 5mi
Dew Point: 28°   Wind: 12mph
Humidity: 100%   Direction: 170°S
Pressure: 30.03"   Gusts: 21mph
Location:  46.6535°N, 94.5389°W
Report Text: KPWC 210314Z AUTO 17010G18KT 5SM BR OVC005 M02/M02 A3003 RMK AO2
Loading
Personal Weather Stations






























Interactive Weather Map New forecast layout! Learn more

10-Day Weather Forecast

Advertisements
Track Severe Weather on mobile